sensor_id;sensor_type;location;lat;lon;timestamp;temperature;humidity
69208;SHT31;56321;47.662;8.878;2022-09-09T00:15:01;16.10;70.93
69208;SHT31;56321;47.662;8.878;2022-09-09T00:17:43;16.08;70.93
69208;SHT31;56321;47.662;8.878;2022-09-09T00:23:11;16.08;71.40
69208;SHT31;56321;47.662;8.878;2022-09-09T00:25:44;16.05;71.19
69208;SHT31;56321;47.662;8.878;2022-09-09T00:28:24;16.04;71.71
69208;SHT31;56321;47.662;8.878;2022-09-09T00:30:50;16.04;71.64
69208;SHT31;56321;47.662;8.878;2022-09-09T00:33:20;16.05;71.88
69208;SHT31;56321;47.662;8.878;2022-09-09T00:35:49;16.08;71.94
69208;SHT31;56321;47.662;8.878;2022-09-09T00:38:33;16.12;72.03
69208;SHT31;56321;47.662;8.878;2022-09-09T00:43:49;16.18;71.93
69208;SHT31;56321;47.662;8.878;2022-09-09T00:49:55;16.23;72.29
69208;SHT31;56321;47.662;8.878;2022-09-09T00:55:09;16.27;72.22
69208;SHT31;56321;47.662;8.878;2022-09-09T00:57:37;16.26;72.05
69208;SHT31;56321;47.662;8.878;2022-09-09T01:00:24;16.27;72.53
69208;SHT31;56321;47.662;8.878;2022-09-09T01:02:55;16.30;72.30
69208;SHT31;56321;47.662;8.878;2022-09-09T01:07:58;16.30;72.34
69208;SHT31;56321;47.662;8.878;2022-09-09T01:10:37;16.33;72.41
69208;SHT31;56321;47.662;8.878;2022-09-09T01:13:13;16.34;72.49
69208;SHT31;56321;47.662;8.878;2022-09-09T01:15:41;16.36;72.45
69208;SHT31;56321;47.662;8.878;2022-09-09T01:18:10;16.40;72.57
69208;SHT31;56321;47.662;8.878;2022-09-09T01:26:23;16.32;72.72
69208;SHT31;56321;47.662;8.878;2022-09-09T01:28:51;16.29;72.70
69208;SHT31;56321;47.662;8.878;2022-09-09T01:31:26;16.26;72.76
69208;SHT31;56321;47.662;8.878;2022-09-09T01:33:53;16.25;72.87
69208;SHT31;56321;47.662;8.878;2022-09-09T01:36:24;16.25;73.09
69208;SHT31;56321;47.662;8.878;2022-09-09T01:38:51;16.25;73.23
69208;SHT31;56321;47.662;8.878;2022-09-09T01:41:17;16.25;73.43
69208;SHT31;56321;47.662;8.878;2022-09-09T01:43:43;16.25;73.57
69208;SHT31;56321;47.662;8.878;2022-09-09T01:46:09;16.25;73.57
69208;SHT31;56321;47.662;8.878;2022-09-09T01:48:36;16.29;73.57
69208;SHT31;56321;47.662;8.878;2022-09-09T01:51:01;16.27;73.52
69208;SHT31;56321;47.662;8.878;2022-09-09T01:53:27;16.29;73.49
69208;SHT31;56321;47.662;8.878;2022-09-09T01:56:21;16.33;73.63
69208;SHT31;56321;47.662;8.878;2022-09-09T02:02:09;16.30;73.57
69208;SHT31;56321;47.662;8.878;2022-09-09T02:04:41;16.33;73.69
69208;SHT31;56321;47.662;8.878;2022-09-09T02:09:40;16.33;73.88
69208;SHT31;56321;47.662;8.878;2022-09-09T02:12:12;16.36;73.96
69208;SHT31;56321;47.662;8.878;2022-09-09T02:14:49;16.36;73.91
69208;SHT31;56321;47.662;8.878;2022-09-09T02:17:23;16.36;73.94
69208;SHT31;56321;47.662;8.878;2022-09-09T02:19:59;16.40;74.02
69208;SHT31;56321;47.662;8.878;2022-09-09T02:22:28;16.42;73.97
69208;SHT31;56321;47.662;8.878;2022-09-09T02:24:57;16.39;73.93
69208;SHT31;56321;47.662;8.878;2022-09-09T02:27:24;16.37;74.05
69208;SHT31;56321;47.662;8.878;2022-09-09T02:29:51;16.39;74.09
69208;SHT31;56321;47.662;8.878;2022-09-09T02:32:21;16.42;74.15
69208;SHT31;56321;47.662;8.878;2022-09-09T02:34:49;16.42;74.04
69208;SHT31;56321;47.662;8.878;2022-09-09T02:37:22;16.42;74.18
69208;SHT31;56321;47.662;8.878;2022-09-09T02:39:50;16.45;74.15
69208;SHT31;56321;47.662;8.878;2022-09-09T02:42:16;16.46;74.22
69208;SHT31;56321;47.662;8.878;2022-09-09T02:44:42;16.46;74.33
69208;SHT31;56321;47.662;8.878;2022-09-09T02:50:02;16.47;74.46
69208;SHT31;56321;47.662;8.878;2022-09-09T02:53:07;16.46;74.52
69208;SHT31;56321;47.662;8.878;2022-09-09T02:55:50;16.50;74.36
69208;SHT31;56321;47.662;8.878;2022-09-09T02:58:18;16.52;74.37
69208;SHT31;56321;47.662;8.878;2022-09-09T03:00:49;16.52;74.57
69208;SHT31;56321;47.662;8.878;2022-09-09T03:03:15;16.53;74.60
69208;SHT31;56321;47.662;8.878;2022-09-09T03:05:42;16.56;74.62
69208;SHT31;56321;47.662;8.878;2022-09-09T03:08:07;16.56;74.57
69208;SHT31;56321;47.662;8.878;2022-09-09T03:10:33;16.57;74.58
69208;SHT31;56321;47.662;8.878;2022-09-09T03:13:00;16.63;74.67
69208;SHT31;56321;47.662;8.878;2022-09-09T03:15:25;16.63;74.72
69208;SHT31;56321;47.662;8.878;2022-09-09T03:17:54;16.63;74.57
69208;SHT31;56321;47.662;8.878;2022-09-09T03:20:20;16.67;74.57
69208;SHT31;56321;47.662;8.878;2022-09-09T03:22:45;16.67;74.65
69208;SHT31;56321;47.662;8.878;2022-09-09T03:25:10;16.67;74.65
69208;SHT31;56321;47.662;8.878;2022-09-09T03:27:36;16.73;74.67
69208;SHT31;56321;47.662;8.878;2022-09-09T03:30:01;16.73;74.74
69208;SHT31;56321;47.662;8.878;2022-09-09T03:32:28;16.75;74.77
69208;SHT31;56321;47.662;8.878;2022-09-09T03:34:54;16.78;74.43
69208;SHT31;56321;47.662;8.878;2022-09-09T03:37:19;16.83;74.37
69208;SHT31;56321;47.662;8.878;2022-09-09T03:39:45;16.87;74.57
69208;SHT31;56321;47.662;8.878;2022-09-09T03:42:14;16.89;74.44
69208;SHT31;56321;47.662;8.878;2022-09-09T03:44:40;16.92;74.56
69208;SHT31;56321;47.662;8.878;2022-09-09T03:47:06;16.98;74.57
69208;SHT31;56321;47.662;8.878;2022-09-09T03:49:31;16.98;74.62
69208;SHT31;56321;47.662;8.878;2022-09-09T03:51:57;17.01;74.42
69208;SHT31;56321;47.662;8.878;2022-09-09T03:54:24;17.00;74.93
69208;SHT31;56321;47.662;8.878;2022-09-09T03:56:49;17.02;75.08
69208;SHT31;56321;47.662;8.878;2022-09-09T03:59:15;17.01;75.21
69208;SHT31;56321;47.662;8.878;2022-09-09T04:01:41;17.01;75.32
69208;SHT31;56321;47.662;8.878;2022-09-09T04:04:06;17.04;75.46
69208;SHT31;56321;47.662;8.878;2022-09-09T04:06:32;17.01;75.47
69208;SHT31;56321;47.662;8.878;2022-09-09T04:08:58;17.04;75.16
69208;SHT31;56321;47.662;8.878;2022-09-09T04:11:23;17.04;75.34
69208;SHT31;56321;47.662;8.878;2022-09-09T04:13:49;17.02;75.55
69208;SHT31;56321;47.662;8.878;2022-09-09T04:16:15;17.02;75.85
69208;SHT31;56321;47.662;8.878;2022-09-09T04:18:40;17.04;75.88
69208;SHT31;56321;47.662;8.878;2022-09-09T04:21:06;17.05;75.97
69208;SHT31;56321;47.662;8.878;2022-09-09T04:23:33;17.05;75.94
69208;SHT31;56321;47.662;8.878;2022-09-09T04:26:00;17.04;76.33
69208;SHT31;56321;47.662;8.878;2022-09-09T04:28:28;17.04;76.44
69208;SHT31;56321;47.662;8.878;2022-09-09T04:30:54;17.02;76.55
69208;SHT31;56321;47.662;8.878;2022-09-09T04:33:21;17.01;76.58
69208;SHT31;56321;47.662;8.878;2022-09-09T04:35:48;17.01;76.61
69208;SHT31;56321;47.662;8.878;2022-09-09T04:38:14;17.02;76.77
69208;SHT31;56321;47.662;8.878;2022-09-09T04:40:45;17.00;76.72
69208;SHT31;56321;47.662;8.878;2022-09-09T04:43:12;17.01;76.86
69208;SHT31;56321;47.662;8.878;2022-09-09T04:45:37;17.00;76.78
69208;SHT31;56321;47.662;8.878;2022-09-09T04:48:03;17.00;76.95
69208;SHT31;56321;47.662;8.878;2022-09-09T04:50:29;17.00;76.97
69208;SHT31;56321;47.662;8.878;2022-09-09T04:52:54;17.01;76.94
69208;SHT31;56321;47.662;8.878;2022-09-09T04:55:19;17.00;76.90
69208;SHT31;56321;47.662;8.878;2022-09-09T04:57:45;16.95;76.99
69208;SHT31;56321;47.662;8.878;2022-09-09T05:00:11;17.00;76.97
69208;SHT31;56321;47.662;8.878;2022-09-09T05:02:38;17.01;76.85
69208;SHT31;56321;47.662;8.878;2022-09-09T05:05:05;16.96;76.15
69208;SHT31;56321;47.662;8.878;2022-09-09T05:07:30;16.96;76.50
69208;SHT31;56321;47.662;8.878;2022-09-09T05:09:56;16.94;76.49
69208;SHT31;56321;47.662;8.878;2022-09-09T05:12:22;16.94;76.45
69208;SHT31;56321;47.662;8.878;2022-09-09T05:14:49;16.92;76.46
69208;SHT31;56321;47.662;8.878;2022-09-09T05:17:15;16.92;76.39
69208;SHT31;56321;47.662;8.878;2022-09-09T05:19:41;16.91;76.41
69208;SHT31;56321;47.662;8.878;2022-09-09T05:22:06;16.91;76.55
69208;SHT31;56321;47.662;8.878;2022-09-09T05:24:32;16.88;76.50
69208;SHT31;56321;47.662;8.878;2022-09-09T05:26:58;16.85;76.68
69208;SHT31;56321;47.662;8.878;2022-09-09T05:29:25;16.88;76.69
69208;SHT31;56321;47.662;8.878;2022-09-09T05:31:51;16.85;76.88
69208;SHT31;56321;47.662;8.878;2022-09-09T05:34:17;16.85;77.09
69208;SHT31;56321;47.662;8.878;2022-09-09T05:36:42;16.85;77.15
69208;SHT31;56321;47.662;8.878;2022-09-09T05:39:07;16.87;77.22
69208;SHT31;56321;47.662;8.878;2022-09-09T05:41:33;16.89;77.36
69208;SHT31;56321;47.662;8.878;2022-09-09T05:43:58;16.89;77.47
69208;SHT31;56321;47.662;8.878;2022-09-09T05:46:26;16.94;77.59
69208;SHT31;56321;47.662;8.878;2022-09-09T05:48:52;16.96;77.85
69208;SHT31;56321;47.662;8.878;2022-09-09T05:51:28;16.94;77.90
69208;SHT31;56321;47.662;8.878;2022-09-09T05:53:55;17.00;78.07
69208;SHT31;56321;47.662;8.878;2022-09-09T05:56:25;17.01;78.23
69208;SHT31;56321;47.662;8.878;2022-09-09T05:58:51;17.05;78.21
69208;SHT31;56321;47.662;8.878;2022-09-09T06:01:20;17.10;78.22
69208;SHT31;56321;47.662;8.878;2022-09-09T06:03:47;17.11;78.26
69208;SHT31;56321;47.662;8.878;2022-09-09T06:06:15;17.12;78.32
69208;SHT31;56321;47.662;8.878;2022-09-09T06:08:43;17.16;78.35
69208;SHT31;56321;47.662;8.878;2022-09-09T06:11:18;17.18;78.54
69208;SHT31;56321;47.662;8.878;2022-09-09T06:13:44;17.16;78.45
69208;SHT31;56321;47.662;8.878;2022-09-09T06:16:11;17.23;78.33
69208;SHT31;56321;47.662;8.878;2022-09-09T06:18:38;17.23;78.11
69208;SHT31;56321;47.662;8.878;2022-09-09T06:21:05;17.28;78.11
69208;SHT31;56321;47.662;8.878;2022-09-09T06:23:32;17.31;77.76
69208;SHT31;56321;47.662;8.878;2022-09-09T06:26:07;17.32;77.58
69208;SHT31;56321;47.662;8.878;2022-09-09T06:28:34;17.38;77.29
69208;SHT31;56321;47.662;8.878;2022-09-09T06:31:00;17.39;77.72
69208;SHT31;56321;47.662;8.878;2022-09-09T06:33:26;17.39;78.04
69208;SHT31;56321;47.662;8.878;2022-09-09T06:35:55;17.43;77.98
69208;SHT31;56321;47.662;8.878;2022-09-09T06:38:22;17.46;78.17
69208;SHT31;56321;47.662;8.878;2022-09-09T06:40:55;17.46;78.13
69208;SHT31;56321;47.662;8.878;2022-09-09T06:43:22;17.47;78.04
69208;SHT31;56321;47.662;8.878;2022-09-09T06:45:58;17.46;77.96
69208;SHT31;56321;47.662;8.878;2022-09-09T06:48:23;17.49;77.97
69208;SHT31;56321;47.662;8.878;2022-09-09T06:50:51;17.49;77.81
69208;SHT31;56321;47.662;8.878;2022-09-09T06:53:24;17.52;77.89
69208;SHT31;56321;47.662;8.878;2022-09-09T06:55:51;17.59;77.79
69208;SHT31;56321;47.662;8.878;2022-09-09T06:58:16;17.65;77.74
69208;SHT31;56321;47.662;8.878;2022-09-09T07:00:42;17.69;77.58
69208;SHT31;56321;47.662;8.878;2022-09-09T07:03:07;17.74;77.44
69208;SHT31;56321;47.662;8.878;2022-09-09T07:05:32;17.76;77.57
69208;SHT31;56321;47.662;8.878;2022-09-09T07:07:58;17.81;77.74
69208;SHT31;56321;47.662;8.878;2022-09-09T07:10:24;17.84;77.71
69208;SHT31;56321;47.662;8.878;2022-09-09T07:12:52;17.91;77.69
69208;SHT31;56321;47.662;8.878;2022-09-09T07:15:18;17.96;77.52
69208;SHT31;56321;47.662;8.878;2022-09-09T07:17:48;18.04;77.11
69208;SHT31;56321;47.662;8.878;2022-09-09T07:20:14;18.08;77.10
69208;SHT31;56321;47.662;8.878;2022-09-09T07:22:40;18.15;77.18
69208;SHT31;56321;47.662;8.878;2022-09-09T07:25:06;18.21;77.13
69208;SHT31;56321;47.662;8.878;2022-09-09T07:27:32;18.24;76.94
69208;SHT31;56321;47.662;8.878;2022-09-09T07:29:57;18.29;76.48
69208;SHT31;56321;47.662;8.878;2022-09-09T07:32:23;18.34;76.58
69208;SHT31;56321;47.662;8.878;2022-09-09T07:34:48;18.41;76.52
69208;SHT31;56321;47.662;8.878;2022-09-09T07:37:15;18.48;76.44
69208;SHT31;56321;47.662;8.878;2022-09-09T07:39:41;18.49;76.40
69208;SHT31;56321;47.662;8.878;2022-09-09T07:42:07;18.51;76.54
69208;SHT31;56321;47.662;8.878;2022-09-09T07:44:36;18.59;75.71
69208;SHT31;56321;47.662;8.878;2022-09-09T07:47:02;18.62;75.70
69208;SHT31;56321;47.662;8.878;2022-09-09T07:49:28;18.69;75.41
69208;SHT31;56321;47.662;8.878;2022-09-09T07:51:53;18.75;74.85
69208;SHT31;56321;47.662;8.878;2022-09-09T07:54:19;18.89;74.96
69208;SHT31;56321;47.662;8.878;2022-09-09T07:56:49;18.96;75.06
69208;SHT31;56321;47.662;8.878;2022-09-09T07:59:15;19.04;74.85
69208;SHT31;56321;47.662;8.878;2022-09-09T08:01:43;19.13;74.18
69208;SHT31;56321;47.662;8.878;2022-09-09T08:04:11;19.20;73.76
69208;SHT31;56321;47.662;8.878;2022-09-09T08:06:45;19.27;73.36
69208;SHT31;56321;47.662;8.878;2022-09-09T08:09:11;19.34;72.82
69208;SHT31;56321;47.662;8.878;2022-09-09T08:11:38;19.44;72.84
69208;SHT31;56321;47.662;8.878;2022-09-09T08:14:05;19.55;73.26
69208;SHT31;56321;47.662;8.878;2022-09-09T08:16:34;19.70;72.51
69208;SHT31;56321;47.662;8.878;2022-09-09T08:19:02;19.89;73.02
69208;SHT31;56321;47.662;8.878;2022-09-09T08:21:29;20.03;72.14
69208;SHT31;56321;47.662;8.878;2022-09-09T08:23:58;20.18;72.27
69208;SHT31;56321;47.662;8.878;2022-09-09T08:26:29;20.33;71.44
69208;SHT31;56321;47.662;8.878;2022-09-09T08:28:56;20.48;71.33
69208;SHT31;56321;47.662;8.878;2022-09-09T08:31:25;20.63;70.85
69208;SHT31;56321;47.662;8.878;2022-09-09T08:33:50;20.79;70.89
69208;SHT31;56321;47.662;8.878;2022-09-09T08:36:21;20.98;69.58
69208;SHT31;56321;47.662;8.878;2022-09-09T08:38:48;21.07;69.01
69208;SHT31;56321;47.662;8.878;2022-09-09T08:43:47;21.22;68.72
69208;SHT31;56321;47.662;8.878;2022-09-09T08:46:26;21.23;67.40
69208;SHT31;56321;47.662;8.878;2022-09-09T08:52:02;21.10;67.14
69208;SHT31;56321;47.662;8.878;2022-09-09T08:54:33;20.93;66.43
69208;SHT31;56321;47.662;8.878;2022-09-09T08:57:01;20.79;66.61
69208;SHT31;56321;47.662;8.878;2022-09-09T08:59:26;20.84;67.37
69208;SHT31;56321;47.662;8.878;2022-09-09T09:05:05;21.14;65.46
69208;SHT31;56321;47.662;8.878;2022-09-09T09:10:46;21.36;66.29
69208;SHT31;56321;47.662;8.878;2022-09-09T09:13:15;21.50;65.18
69208;SHT31;56321;47.662;8.878;2022-09-09T09:15:41;21.65;64.34
69208;SHT31;56321;47.662;8.878;2022-09-09T09:18:12;21.81;64.35
69208;SHT31;56321;47.662;8.878;2022-09-09T09:21:13;22.04;64.07
69208;SHT31;56321;47.662;8.878;2022-09-09T09:24:01;22.30;62.07
69208;SHT31;56321;47.662;8.878;2022-09-09T09:26:32;22.52;61.87
69208;SHT31;56321;47.662;8.878;2022-09-09T09:28:59;22.70;62.08
69208;SHT31;56321;47.662;8.878;2022-09-09T09:31:26;22.74;61.43
69208;SHT31;56321;47.662;8.878;2022-09-09T09:33:56;22.71;61.15
69208;SHT31;56321;47.662;8.878;2022-09-09T09:36:40;22.53;59.27
69208;SHT31;56321;47.662;8.878;2022-09-09T09:39:07;22.45;60.58
69208;SHT31;56321;47.662;8.878;2022-09-09T09:41:37;22.37;60.25
69208;SHT31;56321;47.662;8.878;2022-09-09T09:44:04;22.60;60.46
69208;SHT31;56321;47.662;8.878;2022-09-09T09:46:30;22.80;59.92
69208;SHT31;56321;47.662;8.878;2022-09-09T09:49:01;22.95;58.46
69208;SHT31;56321;47.662;8.878;2022-09-09T09:56:38;24.18;57.86
69208;SHT31;56321;47.662;8.878;2022-09-09T09:59:04;24.72;56.56
69208;SHT31;56321;47.662;8.878;2022-09-09T10:01:31;25.21;55.08
69208;SHT31;56321;47.662;8.878;2022-09-09T10:04:12;25.76;52.39
69208;SHT31;56321;47.662;8.878;2022-09-09T10:06:38;26.24;52.60
69208;SHT31;56321;47.662;8.878;2022-09-09T10:09:24;26.39;48.39
69208;SHT31;56321;47.662;8.878;2022-09-09T10:17:54;25.85;47.48
69208;SHT31;56321;47.662;8.878;2022-09-09T10:26:37;25.37;49.15
69208;SHT31;56321;47.662;8.878;2022-09-09T10:35:09;24.22;48.93
69208;SHT31;56321;47.662;8.878;2022-09-09T10:37:43;23.79;48.74
69208;SHT31;56321;47.662;8.878;2022-09-09T10:40:21;23.39;48.84
69208;SHT31;56321;47.662;8.878;2022-09-09T10:42:51;23.05;49.57
69208;SHT31;56321;47.662;8.878;2022-09-09T10:45:23;22.77;49.98
69208;SHT31;56321;47.662;8.878;2022-09-09T10:50:55;22.23;52.47
69208;SHT31;56321;47.662;8.878;2022-09-09T10:56:00;21.95;53.82
69208;SHT31;56321;47.662;8.878;2022-09-09T10:58:33;21.87;55.56
69208;SHT31;56321;47.662;8.878;2022-09-09T11:01:09;21.84;56.27
69208;SHT31;56321;47.662;8.878;2022-09-09T11:03:39;21.95;55.73
69208;SHT31;56321;47.662;8.878;2022-09-09T11:06:19;22.28;56.56
69208;SHT31;56321;47.662;8.878;2022-09-09T11:08:45;23.12;57.68
69208;SHT31;56321;47.662;8.878;2022-09-09T11:14:10;25.88;52.32
69208;SHT31;56321;47.662;8.878;2022-09-09T11:16:48;26.70;50.05
69208;SHT31;56321;47.662;8.878;2022-09-09T11:21:53;28.00;46.70
69208;SHT31;56321;47.662;8.878;2022-09-09T11:24:44;28.80;45.92
69208;SHT31;56321;47.662;8.878;2022-09-09T11:27:13;29.59;42.87
69208;SHT31;56321;47.662;8.878;2022-09-09T11:35:31;30.74;39.39
69208;SHT31;56321;47.662;8.878;2022-09-09T11:40:28;31.33;39.68
69208;SHT31;56321;47.662;8.878;2022-09-09T11:43:18;31.31;35.23
69208;SHT31;56321;47.662;8.878;2022-09-09T11:45:55;31.37;36.64
69208;SHT31;56321;47.662;8.878;2022-09-09T11:51:07;31.54;34.12
69208;SHT31;56321;47.662;8.878;2022-09-09T11:56:44;31.46;36.23
69208;SHT31;56321;47.662;8.878;2022-09-09T11:59:26;31.46;35.42
69208;SHT31;56321;47.662;8.878;2022-09-09T12:02:25;31.26;35.76
69208;SHT31;56321;47.662;8.878;2022-09-09T12:05:09;31.17;35.58
69208;SHT31;56321;47.662;8.878;2022-09-09T12:08:10;31.09;36.69
69208;SHT31;56321;47.662;8.878;2022-09-09T12:10:30;30.68;36.56
69208;SHT31;56321;47.662;8.878;2022-09-09T12:13:08;30.27;36.51
69208;SHT31;56321;47.662;8.878;2022-09-09T12:15:48;30.03;37.32
69208;SHT31;56321;47.662;8.878;2022-09-09T12:18:22;29.73;36.43
69208;SHT31;56321;47.662;8.878;2022-09-09T12:21:41;29.35;37.17
69208;SHT31;56321;47.662;8.878;2022-09-09T12:23:55;29.03;38.27
69208;SHT31;56321;47.662;8.878;2022-09-09T12:36:50;27.81;39.75
69208;SHT31;56321;47.662;8.878;2022-09-09T12:39:33;27.47;40.15
69208;SHT31;56321;47.662;8.878;2022-09-09T12:42:00;27.32;41.67
69208;SHT31;56321;47.662;8.878;2022-09-09T12:44:26;27.20;41.78
69208;SHT31;56321;47.662;8.878;2022-09-09T12:46:56;27.09;41.52
69208;SHT31;56321;47.662;8.878;2022-09-09T12:49:30;26.99;42.14
69208;SHT31;56321;47.662;8.878;2022-09-09T12:52:05;26.90;43.07
69208;SHT31;56321;47.662;8.878;2022-09-09T12:54:34;26.82;43.20
69208;SHT31;56321;47.662;8.878;2022-09-09T12:57:00;26.78;42.85
69208;SHT31;56321;47.662;8.878;2022-09-09T12:59:40;26.61;42.36
69208;SHT31;56321;47.662;8.878;2022-09-09T13:04:44;26.24;42.72
69208;SHT31;56321;47.662;8.878;2022-09-09T13:07:12;26.05;43.04
69208;SHT31;56321;47.662;8.878;2022-09-09T13:09:39;25.85;42.22
69208;SHT31;56321;47.662;8.878;2022-09-09T13:12:06;25.71;43.65
69208;SHT31;56321;47.662;8.878;2022-09-09T13:14:35;25.65;42.67
69208;SHT31;56321;47.662;8.878;2022-09-09T13:17:04;25.57;43.61
69208;SHT31;56321;47.662;8.878;2022-09-09T13:19:35;25.58;43.74
69208;SHT31;56321;47.662;8.878;2022-09-09T13:24:44;25.44;43.83
69208;SHT31;56321;47.662;8.878;2022-09-09T13:27:35;25.37;44.28
69208;SHT31;56321;47.662;8.878;2022-09-09T13:35:49;25.17;44.37
69208;SHT31;56321;47.662;8.878;2022-09-09T13:38:16;25.13;44.39
69208;SHT31;56321;47.662;8.878;2022-09-09T13:40:53;25.14;44.94
69208;SHT31;56321;47.662;8.878;2022-09-09T13:43:22;25.17;45.83
69208;SHT31;56321;47.662;8.878;2022-09-09T13:46:02;25.17;44.69
69208;SHT31;56321;47.662;8.878;2022-09-09T13:48:28;25.21;43.94
69208;SHT31;56321;47.662;8.878;2022-09-09T13:51:03;25.16;43.57
69208;SHT31;56321;47.662;8.878;2022-09-09T13:53:32;25.17;46.49
69208;SHT31;56321;47.662;8.878;2022-09-09T13:55:58;25.14;44.65
69208;SHT31;56321;47.662;8.878;2022-09-09T13:58:24;25.09;46.22
69208;SHT31;56321;47.662;8.878;2022-09-09T14:00:51;25.03;45.97
69208;SHT31;56321;47.662;8.878;2022-09-09T14:03:17;25.06;46.82
69208;SHT31;56321;47.662;8.878;2022-09-09T14:05:44;25.06;45.66
69208;SHT31;56321;47.662;8.878;2022-09-09T14:08:15;25.10;47.72
69208;SHT31;56321;47.662;8.878;2022-09-09T14:10:41;25.16;47.21
69208;SHT31;56321;47.662;8.878;2022-09-09T14:13:06;25.14;47.70
69208;SHT31;56321;47.662;8.878;2022-09-09T14:15:33;25.17;46.31
69208;SHT31;56321;47.662;8.878;2022-09-09T14:17:58;25.20;44.98
69208;SHT31;56321;47.662;8.878;2022-09-09T14:20:24;25.20;46.05
69208;SHT31;56321;47.662;8.878;2022-09-09T14:22:49;25.23;44.74
69208;SHT31;56321;47.662;8.878;2022-09-09T14:25:14;25.23;44.55
69208;SHT31;56321;47.662;8.878;2022-09-09T14:27:40;25.17;44.72
69208;SHT31;56321;47.662;8.878;2022-09-09T14:30:07;25.07;42.43
69208;SHT31;56321;47.662;8.878;2022-09-09T14:32:33;24.94;43.62
69208;SHT31;56321;47.662;8.878;2022-09-09T14:34:58;24.82;45.40
69208;SHT31;56321;47.662;8.878;2022-09-09T14:37:24;24.76;45.02
69208;SHT31;56321;47.662;8.878;2022-09-09T14:39:49;24.66;44.74
69208;SHT31;56321;47.662;8.878;2022-09-09T14:42:16;24.54;43.33
69208;SHT31;56321;47.662;8.878;2022-09-09T14:44:41;24.34;42.54
69208;SHT31;56321;47.662;8.878;2022-09-09T14:47:07;24.20;43.35
69208;SHT31;56321;47.662;8.878;2022-09-09T14:49:34;24.15;43.77
69208;SHT31;56321;47.662;8.878;2022-09-09T14:51:59;24.21;44.08
69208;SHT31;56321;47.662;8.878;2022-09-09T14:54:25;24.25;45.37
69208;SHT31;56321;47.662;8.878;2022-09-09T14:56:50;24.29;45.71
69208;SHT31;56321;47.662;8.878;2022-09-09T14:59:16;24.35;45.24
69208;SHT31;56321;47.662;8.878;2022-09-09T15:01:41;24.34;44.77
69208;SHT31;56321;47.662;8.878;2022-09-09T15:04:07;24.32;44.07
69208;SHT31;56321;47.662;8.878;2022-09-09T15:06:35;24.28;43.63
69208;SHT31;56321;47.662;8.878;2022-09-09T15:09:01;24.24;44.18
69208;SHT31;56321;47.662;8.878;2022-09-09T15:11:29;24.20;44.39
69208;SHT31;56321;47.662;8.878;2022-09-09T15:13:56;24.14;44.07
69208;SHT31;56321;47.662;8.878;2022-09-09T15:16:25;24.08;44.89
69208;SHT31;56321;47.662;8.878;2022-09-09T15:18:55;24.01;43.52
69208;SHT31;56321;47.662;8.878;2022-09-09T15:21:23;23.96;43.65
69208;SHT31;56321;47.662;8.878;2022-09-09T15:23:49;23.92;44.59
69208;SHT31;56321;47.662;8.878;2022-09-09T15:26:15;23.88;45.26
69208;SHT31;56321;47.662;8.878;2022-09-09T15:28:43;23.86;45.32
69208;SHT31;56321;47.662;8.878;2022-09-09T15:31:11;23.83;44.63
69208;SHT31;56321;47.662;8.878;2022-09-09T15:33:39;23.80;45.52
69208;SHT31;56321;47.662;8.878;2022-09-09T15:36:19;23.74;44.84
69208;SHT31;56321;47.662;8.878;2022-09-09T15:38:45;23.73;43.76
69208;SHT31;56321;47.662;8.878;2022-09-09T15:41:12;23.65;43.87
69208;SHT31;56321;47.662;8.878;2022-09-09T15:43:38;23.59;43.42
69208;SHT31;56321;47.662;8.878;2022-09-09T15:46:25;23.50;42.94
69208;SHT31;56321;47.662;8.878;2022-09-09T15:48:55;23.43;43.60
69208;SHT31;56321;47.662;8.878;2022-09-09T15:51:22;23.37;43.05
69208;SHT31;56321;47.662;8.878;2022-09-09T15:53:48;23.31;43.82
69208;SHT31;56321;47.662;8.878;2022-09-09T15:56:14;23.29;43.66
69208;SHT31;56321;47.662;8.878;2022-09-09T15:58:39;23.23;44.06
69208;SHT31;56321;47.662;8.878;2022-09-09T16:01:07;23.21;44.25
69208;SHT31;56321;47.662;8.878;2022-09-09T16:03:40;23.10;44.27
69208;SHT31;56321;47.662;8.878;2022-09-09T16:06:16;23.08;43.76
69208;SHT31;56321;47.662;8.878;2022-09-09T16:08:44;23.00;43.98
69208;SHT31;56321;47.662;8.878;2022-09-09T16:11:16;22.91;43.85
69208;SHT31;56321;47.662;8.878;2022-09-09T16:13:43;22.87;44.55
69208;SHT31;56321;47.662;8.878;2022-09-09T16:16:13;22.80;44.39
69208;SHT31;56321;47.662;8.878;2022-09-09T16:18:40;22.74;45.21
69208;SHT31;56321;47.662;8.878;2022-09-09T16:21:07;22.71;45.43
69208;SHT31;56321;47.662;8.878;2022-09-09T16:23:33;22.64;45.24
69208;SHT31;56321;47.662;8.878;2022-09-09T16:25:59;22.61;45.97
69208;SHT31;56321;47.662;8.878;2022-09-09T16:28:25;22.52;46.26
69208;SHT31;56321;47.662;8.878;2022-09-09T16:30:50;22.47;45.69
69208;SHT31;56321;47.662;8.878;2022-09-09T16:33:17;22.40;45.66
69208;SHT31;56321;47.662;8.878;2022-09-09T16:35:42;22.33;45.74
69208;SHT31;56321;47.662;8.878;2022-09-09T16:38:08;22.29;46.15
69208;SHT31;56321;47.662;8.878;2022-09-09T16:40:37;22.26;46.02
69208;SHT31;56321;47.662;8.878;2022-09-09T16:43:06;22.19;46.00
69208;SHT31;56321;47.662;8.878;2022-09-09T16:45:31;22.16;46.78
69208;SHT31;56321;47.662;8.878;2022-09-09T16:47:58;22.13;47.14
69208;SHT31;56321;47.662;8.878;2022-09-09T16:50:23;22.09;46.66
69208;SHT31;56321;47.662;8.878;2022-09-09T16:52:48;22.04;46.93
69208;SHT31;56321;47.662;8.878;2022-09-09T16:55:14;22.02;47.68
69208;SHT31;56321;47.662;8.878;2022-09-09T16:57:39;22.01;48.25
69208;SHT31;56321;47.662;8.878;2022-09-09T17:00:07;22.01;49.17
69208;SHT31;56321;47.662;8.878;2022-09-09T17:02:32;21.97;49.33
69208;SHT31;56321;47.662;8.878;2022-09-09T17:04:58;21.92;50.11
69208;SHT31;56321;47.662;8.878;2022-09-09T17:07:24;21.87;50.84
69208;SHT31;56321;47.662;8.878;2022-09-09T17:09:50;21.82;51.46
69208;SHT31;56321;47.662;8.878;2022-09-09T17:12:15;21.75;51.36
69208;SHT31;56321;47.662;8.878;2022-09-09T17:14:41;21.70;51.67
69208;SHT31;56321;47.662;8.878;2022-09-09T17:17:06;21.62;52.00
69208;SHT31;56321;47.662;8.878;2022-09-09T17:19:32;21.58;52.55
69208;SHT31;56321;47.662;8.878;2022-09-09T17:21:58;21.49;53.36
69208;SHT31;56321;47.662;8.878;2022-09-09T17:24:24;21.43;53.97
69208;SHT31;56321;47.662;8.878;2022-09-09T17:26:51;21.37;54.25
69208;SHT31;56321;47.662;8.878;2022-09-09T17:29:17;21.30;54.56
69208;SHT31;56321;47.662;8.878;2022-09-09T17:31:43;21.24;54.92
69208;SHT31;56321;47.662;8.878;2022-09-09T17:34:08;21.22;55.09
69208;SHT31;56321;47.662;8.878;2022-09-09T17:36:34;21.19;55.47
69208;SHT31;56321;47.662;8.878;2022-09-09T17:39:02;21.18;55.47
69208;SHT31;56321;47.662;8.878;2022-09-09T17:41:32;21.13;55.00
69208;SHT31;56321;47.662;8.878;2022-09-09T17:43:58;21.00;53.50
69208;SHT31;56321;47.662;8.878;2022-09-09T17:46:38;20.91;52.37